createdAt,value
2018-12-09T00:01:47.795Z,984.11
2018-12-09T00:02:47.817Z,984.11
2018-12-09T00:04:40.764Z,984.04
2018-12-09T00:05:40.795Z,983.94
2018-12-09T00:07:33.753Z,983.90
2018-12-09T00:08:33.773Z,983.90
2018-12-09T00:10:26.722Z,983.89
2018-12-09T00:11:26.753Z,983.89
2018-12-09T00:13:19.708Z,983.84
2018-12-09T00:14:19.735Z,983.82
2018-12-09T00:16:12.684Z,983.80
2018-12-09T00:17:12.708Z,983.71
2018-12-09T00:19:05.658Z,983.67
2018-12-09T00:20:05.684Z,983.63
2018-12-09T00:21:58.641Z,983.52
2018-12-09T00:22:58.662Z,983.64
2018-12-09T00:24:51.617Z,983.47
2018-12-09T00:25:51.644Z,983.53
2018-12-09T00:27:44.598Z,983.55
2018-12-09T00:28:44.687Z,983.48
2018-12-09T00:30:37.565Z,983.44
2018-12-09T00:31:37.600Z,983.27
2018-12-09T00:33:30.551Z,983.34
2018-12-09T00:34:30.572Z,983.36
2018-12-09T00:36:23.524Z,983.33
2018-12-09T00:37:23.551Z,983.21
2018-12-09T00:39:16.493Z,983.26
2018-12-09T00:40:16.523Z,983.30
2018-12-09T00:42:09.480Z,983.16
2018-12-09T00:43:09.503Z,983.22
2018-12-09T00:45:02.452Z,983.20
2018-12-09T00:46:02.485Z,983.21
2018-12-09T00:47:55.437Z,983.17
2018-12-09T00:48:55.460Z,983.25
2018-12-09T00:50:48.410Z,983.01
2018-12-09T00:51:48.438Z,983.21
2018-12-09T00:53:41.394Z,983.29
2018-12-09T00:54:41.416Z,983.07
2018-12-09T00:56:34.374Z,983.16
2018-12-09T00:57:34.395Z,983.30
2018-12-09T00:59:27.341Z,983.37
2018-12-09T01:00:27.371Z,983.58
2018-12-09T01:02:20.323Z,983.41
2018-12-09T01:03:20.347Z,983.52
2018-12-09T01:05:13.294Z,983.54
2018-12-09T01:06:13.323Z,983.52
2018-12-09T01:08:06.275Z,983.64
2018-12-09T01:09:06.297Z,983.46
2018-12-09T01:10:59.246Z,983.56
2018-12-09T01:11:59.273Z,983.44
2018-12-09T01:13:52.232Z,983.50
2018-12-09T01:14:52.253Z,983.55
2018-12-09T01:16:45.203Z,983.52
2018-12-09T01:17:45.229Z,983.55
2018-12-09T01:19:38.676Z,983.53
2018-12-09T01:20:38.705Z,983.52
2018-12-09T01:22:31.661Z,983.57
2018-12-09T01:23:31.686Z,983.56
2018-12-09T01:25:24.626Z,983.55
2018-12-09T01:26:24.657Z,983.52
2018-12-09T01:28:17.610Z,983.60
2018-12-09T01:29:17.636Z,983.53
2018-12-09T01:31:10.580Z,983.55
2018-12-09T01:32:10.609Z,983.54
2018-12-09T01:34:03.563Z,983.49
2018-12-09T01:35:03.583Z,983.52
2018-12-09T01:36:56.552Z,983.55
2018-12-09T01:37:56.561Z,983.40
2018-12-09T01:39:49.506Z,983.60
2018-12-09T01:40:49.537Z,983.67
2018-12-09T01:42:42.491Z,983.57
2018-12-09T01:43:42.513Z,983.62
2018-12-09T01:45:35.459Z,983.67
2018-12-09T01:46:35.490Z,983.62
2018-12-09T01:48:28.444Z,983.60
2018-12-09T01:49:28.467Z,983.61
2018-12-09T01:51:21.409Z,983.58
2018-12-09T01:52:21.439Z,983.70
2018-12-09T01:54:14.394Z,983.67
2018-12-09T01:55:14.416Z,983.74
2018-12-09T01:57:07.394Z,983.71
2018-12-09T01:58:07.399Z,983.71
2018-12-09T02:00:00.354Z,983.83
2018-12-09T02:01:00.377Z,983.77
2018-12-09T02:02:53.330Z,983.81
2018-12-09T02:03:53.347Z,983.71
2018-12-09T02:05:46.295Z,983.78
2018-12-09T02:06:46.327Z,983.86
2018-12-09T02:08:39.779Z,983.86
2018-12-09T02:09:39.797Z,983.76
2018-12-09T02:11:32.744Z,983.79
2018-12-09T02:12:32.771Z,983.73
2018-12-09T02:14:25.739Z,983.71
2018-12-09T02:15:25.748Z,983.74
2018-12-09T02:17:18.693Z,983.76
2018-12-09T02:18:18.724Z,983.75
2018-12-09T02:20:11.681Z,983.73
2018-12-09T02:21:11.704Z,983.78
2018-12-09T02:23:04.658Z,983.84
2018-12-09T02:24:04.683Z,983.88
2018-12-09T02:25:57.625Z,984.05
2018-12-09T02:26:57.656Z,984.04
2018-12-09T02:28:50.611Z,984.00
2018-12-09T02:29:50.633Z,984.03
2018-12-09T02:31:43.582Z,984.09
2018-12-09T02:32:43.612Z,984.20
2018-12-09T02:34:36.567Z,984.14
2018-12-09T02:35:36.590Z,984.16
2018-12-09T02:37:29.550Z,984.09
2018-12-09T02:38:29.559Z,984.13
2018-12-09T02:40:22.515Z,984.20
2018-12-09T02:41:22.537Z,984.21
2018-12-09T02:43:15.493Z,984.12
2018-12-09T02:44:15.518Z,984.10
2018-12-09T02:46:08.462Z,984.14
2018-12-09T02:47:08.488Z,984.13
2018-12-09T02:49:01.444Z,984.11
2018-12-09T02:50:01.464Z,984.14
2018-12-09T02:51:54.409Z,984.09
2018-12-09T02:52:54.440Z,984.16
2018-12-09T02:54:47.396Z,984.17
2018-12-09T02:55:47.415Z,984.25
2018-12-09T02:57:40.361Z,984.25
2018-12-09T02:58:40.391Z,984.13
2018-12-09T03:00:33.346Z,984.18
2018-12-09T03:01:33.364Z,984.10
2018-12-09T03:03:26.319Z,984.16
2018-12-09T03:04:26.336Z,984.18
2018-12-09T03:06:19.281Z,984.16
2018-12-09T03:07:19.312Z,984.07
2018-12-09T03:09:12.262Z,984.15
2018-12-09T03:10:12.286Z,984.21
2018-12-09T03:12:05.231Z,984.17
2018-12-09T03:13:05.255Z,984.23
2018-12-09T03:14:58.215Z,984.19
2018-12-09T03:15:58.232Z,984.15
2018-12-09T03:17:51.182Z,984.18
2018-12-09T03:18:51.212Z,984.14
2018-12-09T03:20:44.170Z,984.23
2018-12-09T03:21:44.192Z,984.17
2018-12-09T03:23:37.146Z,984.10
2018-12-09T03:24:37.165Z,984.16
2018-12-09T03:26:30.114Z,984.27
2018-12-09T03:27:30.144Z,984.18
2018-12-09T03:29:23.097Z,984.21
2018-12-09T03:30:23.121Z,984.25
2018-12-09T03:32:16.064Z,984.25
2018-12-09T03:33:16.096Z,984.22
2018-12-09T03:35:09.045Z,984.29
2018-12-09T03:36:09.071Z,984.23
2018-12-09T03:38:02.013Z,984.35
2018-12-09T03:39:02.045Z,984.30
2018-12-09T03:40:54.998Z,984.27
2018-12-09T03:41:55.016Z,984.38
2018-12-09T03:43:47.960Z,984.34
2018-12-09T03:44:47.992Z,984.32
2018-12-09T03:46:40.945Z,984.34
2018-12-09T03:47:40.963Z,984.36
2018-12-09T03:49:33.917Z,984.27
2018-12-09T03:50:33.935Z,984.37
2018-12-09T03:52:26.883Z,984.30
2018-12-09T03:53:26.911Z,984.39
2018-12-09T03:55:19.867Z,984.53
2018-12-09T03:56:19.889Z,984.41
2018-12-09T03:58:12.831Z,984.41
2018-12-09T03:59:12.861Z,984.45
2018-12-09T04:01:05.813Z,984.42
2018-12-09T04:02:05.837Z,984.45
2018-12-09T04:03:58.780Z,984.48
2018-12-09T04:04:58.822Z,984.52
2018-12-09T04:06:51.772Z,984.47
2018-12-09T04:07:51.792Z,984.44
2018-12-09T04:09:44.742Z,984.50
2018-12-09T04:10:44.761Z,984.43
2018-12-09T04:12:37.708Z,984.51
2018-12-09T04:13:37.740Z,984.46
2018-12-09T04:15:30.696Z,984.48
2018-12-09T04:16:30.718Z,984.50
2018-12-09T04:18:23.665Z,984.43
2018-12-09T04:19:23.698Z,984.52
2018-12-09T04:21:16.661Z,984.46
2018-12-09T04:22:16.673Z,984.47
2018-12-09T04:24:09.614Z,984.51
2018-12-09T04:25:09.644Z,984.51
2018-12-09T04:27:03.086Z,984.56
2018-12-09T04:28:03.110Z,984.62
2018-12-09T04:29:56.065Z,984.64
2018-12-09T04:30:56.084Z,984.69
2018-12-09T04:32:49.026Z,984.67
2018-12-09T04:33:49.057Z,984.74
2018-12-09T04:35:42.015Z,984.67
2018-12-09T04:36:42.038Z,984.63
2018-12-09T04:38:34.980Z,984.70
2018-12-09T04:39:35.012Z,984.59
2018-12-09T04:41:27.960Z,984.68
2018-12-09T04:42:27.985Z,984.57
2018-12-09T04:44:20.934Z,984.59
2018-12-09T04:45:20.961Z,984.60
2018-12-09T04:47:13.915Z,984.65
2018-12-09T04:48:13.934Z,984.64
2018-12-09T04:50:06.888Z,984.66
2018-12-09T04:51:06.909Z,984.67
2018-12-09T04:52:59.849Z,984.68
2018-12-09T04:53:59.879Z,984.67
2018-12-09T04:55:52.835Z,984.69
2018-12-09T04:56:52.856Z,984.73
2018-12-09T04:58:45.804Z,984.71
2018-12-09T04:59:45.828Z,984.66
2018-12-09T05:01:39.282Z,984.70
2018-12-09T05:02:39.305Z,984.70
2018-12-09T05:04:32.252Z,984.75
2018-12-09T05:05:32.283Z,984.79
2018-12-09T05:07:25.231Z,984.69
2018-12-09T05:08:25.256Z,984.74
2018-12-09T05:10:18.211Z,984.73
2018-12-09T05:11:18.233Z,984.76
2018-12-09T05:13:11.201Z,984.76
2018-12-09T05:14:11.218Z,984.78
2018-12-09T05:16:04.163Z,984.83
2018-12-09T05:17:04.183Z,984.91
2018-12-09T05:18:57.126Z,984.91
2018-12-09T05:19:57.157Z,984.93
2018-12-09T05:21:50.108Z,984.96
2018-12-09T05:22:50.133Z,984.99
2018-12-09T05:24:43.076Z,984.94
2018-12-09T05:25:43.105Z,984.98
2018-12-09T05:27:36.057Z,985.02
2018-12-09T05:28:36.080Z,985.03
2018-12-09T05:30:29.035Z,985.10
2018-12-09T05:31:29.052Z,985.13
2018-12-09T05:33:21.998Z,985.17
2018-12-09T05:34:22.027Z,985.20
2018-12-09T05:36:14.977Z,985.23
2018-12-09T05:37:15.003Z,985.25
2018-12-09T05:39:07.945Z,985.42
2018-12-09T05:40:07.973Z,985.40
2018-12-09T05:42:00.930Z,985.46
2018-12-09T05:43:00.948Z,985.33
2018-12-09T05:44:53.903Z,985.46
2018-12-09T05:45:53.930Z,985.54
2018-12-09T05:47:46.883Z,985.59
2018-12-09T05:48:46.907Z,985.62
2018-12-09T05:50:39.849Z,985.63
2018-12-09T05:51:39.880Z,985.64
2018-12-09T05:53:32.834Z,985.66
2018-12-09T05:54:32.861Z,985.64
2018-12-09T05:56:25.806Z,985.76
2018-12-09T05:57:25.828Z,985.69
2018-12-09T05:59:18.774Z,985.79
2018-12-09T06:00:18.806Z,985.78
2018-12-09T06:02:11.757Z,985.77
2018-12-09T06:03:11.777Z,985.80
2018-12-09T06:05:04.723Z,985.84
2018-12-09T06:06:04.751Z,985.93
2018-12-09T06:07:57.711Z,985.76
2018-12-09T06:08:57.723Z,985.87
2018-12-09T06:10:50.669Z,985.86
2018-12-09T06:11:50.698Z,985.90
2018-12-09T06:13:43.655Z,985.88
2018-12-09T06:14:43.674Z,985.94
2018-12-09T06:16:36.622Z,986.03
2018-12-09T06:17:36.652Z,985.91
2018-12-09T06:19:29.598Z,985.97
2018-12-09T06:20:29.623Z,986.04
2018-12-09T06:22:22.579Z,985.90
2018-12-09T06:23:22.603Z,985.96
2018-12-09T06:25:15.545Z,985.97
2018-12-09T06:26:15.573Z,986.01
2018-12-09T06:28:08.530Z,985.97
2018-12-09T06:29:08.550Z,986.08
2018-12-09T06:31:01.506Z,986.04
2018-12-09T06:32:01.534Z,986.11
2018-12-09T06:33:54.484Z,986.10
2018-12-09T06:34:54.504Z,986.10
2018-12-09T06:36:47.449Z,986.05
2018-12-09T06:37:47.480Z,986.14
2018-12-09T06:39:40.432Z,986.18
2018-12-09T06:40:40.452Z,986.13
2018-12-09T06:42:33.410Z,986.22
2018-12-09T06:43:33.435Z,986.25
2018-12-09T06:45:26.377Z,986.27
2018-12-09T06:46:26.409Z,986.20
2018-12-09T06:48:19.364Z,986.20
2018-12-09T06:49:19.386Z,986.30
2018-12-09T06:51:12.341Z,986.27
2018-12-09T06:52:12.368Z,986.22
2018-12-09T06:54:05.317Z,986.31
2018-12-09T06:55:05.343Z,986.32
2018-12-09T06:56:58.790Z,986.26
2018-12-09T06:57:58.820Z,986.44
2018-12-09T06:59:51.782Z,986.35
2018-12-09T07:00:51.801Z,986.42
2018-12-09T07:02:44.755Z,986.46
2018-12-09T07:03:44.780Z,986.42
2018-12-09T07:05:37.726Z,986.52
2018-12-09T07:06:37.753Z,986.53
2018-12-09T07:08:30.709Z,986.54
2018-12-09T07:09:30.729Z,986.68
2018-12-09T07:11:23.674Z,986.57
2018-12-09T07:12:23.704Z,986.54
2018-12-09T07:14:16.661Z,986.60
2018-12-09T07:15:16.683Z,986.55
2018-12-09T07:17:10.130Z,986.66
2018-12-09T07:18:10.161Z,986.66
2018-12-09T07:20:03.118Z,986.72
2018-12-09T07:21:03.138Z,986.71
2018-12-09T07:22:56.150Z,986.79
2018-12-09T07:23:56.113Z,986.89
2018-12-09T07:25:49.070Z,986.96
2018-12-09T07:26:49.092Z,986.89
2018-12-09T07:28:42.591Z,986.94
2018-12-09T07:29:42.564Z,987.00
2018-12-09T07:31:36.042Z,987.00
2018-12-09T07:32:36.045Z,986.95
2018-12-09T07:34:29.019Z,986.99
2018-12-09T07:35:29.043Z,986.99
2018-12-09T07:37:21.989Z,987.13
2018-12-09T07:38:22.019Z,987.16
2018-12-09T07:40:14.986Z,987.13
2018-12-09T07:41:14.995Z,987.17
2018-12-09T07:43:07.964Z,987.24
2018-12-09T07:44:07.970Z,987.27
2018-12-09T07:46:00.917Z,987.26
2018-12-09T07:47:00.948Z,987.28
2018-12-09T07:48:53.902Z,987.32
2018-12-09T07:49:53.922Z,987.35
2018-12-09T07:51:47.369Z,987.41
2018-12-09T07:52:47.400Z,987.41
2018-12-09T07:54:40.356Z,987.49
2018-12-09T07:55:40.376Z,987.51
2018-12-09T07:57:33.318Z,987.44
2018-12-09T07:58:33.351Z,987.54
2018-12-09T08:00:26.807Z,987.51
2018-12-09T08:01:26.828Z,987.56
2018-12-09T08:03:19.787Z,987.56
2018-12-09T08:04:19.809Z,987.57
2018-12-09T08:06:13.257Z,987.58
2018-12-09T08:07:13.286Z,987.58
2018-12-09T08:09:06.255Z,987.62
2018-12-09T08:10:06.264Z,987.66
2018-12-09T08:11:59.210Z,987.66
2018-12-09T08:12:59.241Z,987.71
2018-12-09T08:14:52.199Z,987.76
2018-12-09T08:15:52.220Z,987.75
2018-12-09T08:17:45.165Z,987.75
2018-12-09T08:18:45.197Z,987.72
2018-12-09T08:20:38.641Z,987.75
2018-12-09T08:21:38.667Z,987.79
2018-12-09T08:23:32.129Z,987.78
2018-12-09T08:24:32.136Z,987.74
2018-12-09T08:26:25.079Z,987.79
2018-12-09T08:27:25.110Z,987.84
2018-12-09T08:29:18.066Z,987.96
2018-12-09T08:30:18.087Z,987.92
2018-12-09T08:32:11.536Z,987.98
2018-12-09T08:33:11.568Z,988.01
2018-12-09T08:35:04.525Z,987.93
2018-12-09T08:36:04.547Z,987.97
2018-12-09T08:37:57.499Z,988.00
2018-12-09T08:38:57.529Z,988.09
2018-12-09T08:40:50.477Z,988.03
2018-12-09T08:41:50.501Z,988.03
2018-12-09T08:43:43.485Z,988.00
2018-12-09T08:44:43.484Z,987.98
2018-12-09T08:46:36.431Z,988.02
2018-12-09T08:47:36.557Z,988.00
2018-12-09T08:49:29.418Z,987.95
2018-12-09T08:50:29.437Z,987.95
2018-12-09T08:52:22.395Z,987.91
2018-12-09T08:53:22.416Z,987.94
2018-12-09T08:55:15.375Z,988.01
2018-12-09T08:56:15.398Z,988.02
2018-12-09T08:58:08.341Z,988.05
2018-12-09T08:59:08.372Z,988.08
2018-12-09T09:01:01.326Z,988.09
2018-12-09T09:02:01.350Z,988.19
2018-12-09T09:03:54.295Z,988.19
2018-12-09T09:04:54.320Z,988.21
2018-12-09T09:06:47.280Z,988.26
2018-12-09T09:07:47.300Z,988.27
2018-12-09T09:09:40.253Z,988.28
2018-12-09T09:10:40.276Z,988.18
2018-12-09T09:12:33.224Z,988.33
2018-12-09T09:13:33.255Z,988.28
2018-12-09T09:15:26.221Z,988.39
2018-12-09T09:16:26.236Z,988.35
2018-12-09T09:18:19.189Z,988.34
2018-12-09T09:19:19.210Z,988.39
2018-12-09T09:21:12.168Z,988.40
2018-12-09T09:22:12.190Z,988.47
2018-12-09T09:24:05.627Z,988.52
2018-12-09T09:25:05.653Z,988.55
2018-12-09T09:26:58.611Z,988.57
2018-12-09T09:27:58.634Z,988.57
2018-12-09T09:29:51.590Z,988.56
2018-12-09T09:30:51.614Z,988.54
2018-12-09T09:32:44.562Z,988.60
2018-12-09T09:33:45.078Z,988.66
2018-12-09T09:35:37.741Z,988.67
2018-12-09T09:36:37.573Z,988.65
2018-12-09T09:38:30.522Z,988.76
2018-12-09T09:39:30.554Z,988.70
2018-12-09T09:41:23.505Z,988.86
2018-12-09T09:42:23.527Z,988.79
2018-12-09T09:44:16.471Z,988.80
2018-12-09T09:45:16.504Z,988.84
2018-12-09T09:47:09.461Z,988.84
2018-12-09T09:48:09.482Z,988.84
2018-12-09T09:50:02.436Z,988.89
2018-12-09T09:51:02.458Z,988.87
2018-12-09T09:52:55.415Z,988.93
2018-12-09T09:53:55.433Z,989.00
2018-12-09T09:55:48.389Z,988.96
2018-12-09T09:56:48.408Z,989.02
2018-12-09T09:58:41.353Z,989.03
2018-12-09T09:59:41.382Z,989.08
2018-12-09T10:01:34.340Z,989.11
2018-12-09T10:02:34.361Z,989.16
2018-12-09T10:04:27.313Z,989.19
2018-12-09T10:05:27.336Z,989.16
2018-12-09T10:07:20.294Z,989.18
2018-12-09T10:08:20.314Z,989.21
2018-12-09T10:10:13.281Z,989.29
2018-12-09T10:11:13.289Z,989.15
2018-12-09T10:13:06.236Z,989.17
2018-12-09T10:14:06.269Z,989.21
2018-12-09T10:15:59.223Z,989.20
2018-12-09T10:16:59.242Z,989.21
2018-12-09T10:18:52.189Z,989.21
2018-12-09T10:19:52.219Z,989.31
2018-12-09T10:21:45.182Z,989.30
2018-12-09T10:22:45.200Z,989.38
2018-12-09T10:24:38.139Z,989.41
2018-12-09T10:25:38.181Z,989.36
2018-12-09T10:27:31.623Z,989.32
2018-12-09T10:28:31.642Z,989.38
2018-12-09T10:30:24.613Z,989.35
2018-12-09T10:31:24.618Z,989.32
2018-12-09T10:33:18.063Z,989.38
2018-12-09T10:34:18.092Z,989.38
2018-12-09T10:36:11.047Z,989.40
2018-12-09T10:37:11.069Z,989.36
2018-12-09T10:39:04.013Z,989.48
2018-12-09T10:40:04.043Z,989.53
2018-12-09T10:41:57.001Z,989.45
2018-12-09T10:42:57.019Z,989.49
2018-12-09T10:44:50.463Z,989.52
2018-12-09T10:45:50.491Z,989.55
2018-12-09T10:47:43.941Z,989.49
2018-12-09T10:48:43.963Z,989.53
2018-12-09T10:50:37.416Z,989.48
2018-12-09T10:51:37.441Z,989.46
2018-12-09T10:53:30.904Z,989.57
2018-12-09T10:54:30.929Z,989.49
2018-12-09T10:56:23.882Z,989.49
2018-12-09T10:57:23.903Z,989.53
2018-12-09T10:59:17.347Z,989.50
2018-12-09T11:00:17.375Z,989.53
2018-12-09T11:02:10.832Z,989.48
2018-12-09T11:03:10.849Z,989.56
2018-12-09T11:05:04.291Z,989.55
2018-12-09T11:06:04.331Z,989.54
2018-12-09T11:07:57.789Z,989.62
2018-12-09T11:08:57.810Z,989.54
2018-12-09T11:10:51.265Z,989.71
2018-12-09T11:11:51.292Z,989.51
2018-12-09T11:13:44.763Z,989.58
2018-12-09T11:14:44.767Z,989.62
2018-12-09T11:16:38.216Z,989.65
2018-12-09T11:17:38.241Z,989.65
2018-12-09T11:19:31.695Z,989.61
2018-12-09T11:20:31.726Z,989.70
2018-12-09T11:22:25.201Z,989.67
2018-12-09T11:23:25.208Z,989.64
2018-12-09T11:25:18.664Z,989.81
2018-12-09T11:26:18.689Z,989.77
2018-12-09T11:28:12.144Z,989.70
2018-12-09T11:29:12.170Z,989.77
2018-12-09T11:31:05.622Z,989.83
2018-12-09T11:32:05.647Z,989.74
2018-12-09T11:33:59.133Z,989.89
2018-12-09T11:34:59.142Z,989.84
2018-12-09T11:36:52.672Z,989.88
2018-12-09T11:37:52.611Z,989.89
2018-12-09T11:39:46.067Z,989.88
2018-12-09T11:40:46.086Z,989.94
2018-12-09T11:42:39.540Z,989.91
2018-12-09T11:43:39.566Z,989.92
2018-12-09T11:45:32.515Z,989.87
2018-12-09T11:46:32.543Z,989.95
2018-12-09T11:48:25.515Z,989.98
2018-12-09T11:49:25.537Z,989.97
2018-12-09T11:51:18.488Z,990.00
2018-12-09T11:52:18.519Z,989.97
2018-12-09T11:54:11.471Z,990.05
2018-12-09T11:55:11.494Z,990.03
2018-12-09T11:57:04.438Z,989.97
2018-12-09T11:58:04.472Z,990.01
2018-12-09T11:59:57.425Z,990.03
2018-12-09T12:00:57.447Z,990.07
2018-12-09T12:02:50.401Z,990.10
2018-12-09T12:03:50.422Z,990.11
2018-12-09T12:05:43.385Z,990.11
2018-12-09T12:06:43.400Z,990.18
2018-12-09T12:08:36.858Z,990.11
2018-12-09T12:09:36.881Z,990.08
2018-12-09T12:11:29.828Z,990.10
2018-12-09T12:12:29.858Z,990.11
2018-12-09T12:14:23.150Z,990.12
2018-12-09T12:15:23.160Z,990.11
2018-12-09T12:17:16.081Z,990.14
2018-12-09T12:18:16.113Z,990.08
2018-12-09T12:20:09.069Z,990.19
2018-12-09T12:21:09.101Z,990.21
2018-12-09T12:23:02.053Z,990.23
2018-12-09T12:24:02.095Z,990.31
2018-12-09T12:25:55.021Z,990.25
2018-12-09T12:26:55.052Z,990.22
2018-12-09T12:28:48.013Z,990.16
2018-12-09T12:29:48.034Z,990.18
2018-12-09T12:31:40.995Z,990.18
2018-12-09T12:32:41.022Z,990.08
2018-12-09T12:34:33.978Z,990.19
2018-12-09T12:35:34.001Z,990.13
2018-12-09T12:37:26.947Z,990.15
2018-12-09T12:38:26.982Z,990.18
2018-12-09T12:40:19.936Z,990.22
2018-12-09T12:41:19.959Z,990.26
2018-12-09T12:43:12.938Z,990.13
2018-12-09T12:44:12.944Z,990.24
2018-12-09T12:46:05.892Z,990.20
2018-12-09T12:47:05.922Z,990.17
2018-12-09T12:48:58.874Z,990.28
2018-12-09T12:49:58.898Z,990.25
2018-12-09T12:51:51.944Z,990.24
2018-12-09T12:52:51.877Z,990.28
2018-12-09T12:54:44.874Z,990.33
2018-12-09T12:55:44.893Z,990.32
2018-12-09T12:57:37.842Z,990.35
2018-12-09T12:58:37.872Z,990.32
2018-12-09T13:00:31.265Z,990.40
2018-12-09T13:01:30.850Z,990.41
2018-12-09T13:03:23.811Z,990.38
2018-12-09T13:04:23.831Z,990.38
2018-12-09T13:06:16.776Z,990.39
2018-12-09T13:07:16.807Z,990.48
2018-12-09T13:09:09.779Z,990.41
2018-12-09T13:10:09.800Z,990.42
2018-12-09T13:12:03.604Z,990.46
2018-12-09T13:13:02.785Z,990.46
2018-12-09T13:14:55.739Z,990.57
2018-12-09T13:15:55.765Z,990.51
2018-12-09T13:17:48.709Z,990.60
2018-12-09T13:18:48.742Z,990.55
2018-12-09T13:20:41.696Z,990.55
2018-12-09T13:21:41.719Z,990.59
2018-12-09T13:23:34.666Z,990.61
2018-12-09T13:24:34.697Z,990.70
2018-12-09T13:26:27.651Z,990.62
2018-12-09T13:27:27.673Z,990.60
2018-12-09T13:29:20.626Z,990.76
2018-12-09T13:30:20.651Z,990.65
2018-12-09T13:32:13.629Z,990.75
2018-12-09T13:33:13.628Z,990.80
2018-12-09T13:35:06.586Z,990.85
2018-12-09T13:36:06.627Z,990.87
2018-12-09T13:37:59.565Z,990.89
2018-12-09T13:38:59.589Z,990.88
2018-12-09T13:40:52.547Z,991.01
2018-12-09T13:41:52.570Z,991.03
2018-12-09T13:43:45.519Z,991.11
2018-12-09T13:44:45.556Z,991.16
2018-12-09T13:46:38.500Z,991.19
2018-12-09T13:47:38.525Z,991.29
2018-12-09T13:49:31.476Z,991.17
2018-12-09T13:50:31.499Z,991.25
2018-12-09T13:52:24.447Z,991.32
2018-12-09T13:53:24.475Z,991.27
2018-12-09T13:55:17.434Z,991.29
2018-12-09T13:56:17.463Z,991.34
2018-12-09T13:58:10.406Z,991.43
2018-12-09T13:59:10.442Z,991.37
2018-12-09T14:01:03.390Z,991.48
2018-12-09T14:02:03.415Z,991.46
2018-12-09T14:03:56.364Z,991.53
2018-12-09T14:04:56.394Z,991.56
2018-12-09T14:06:49.357Z,991.63
2018-12-09T14:07:49.375Z,991.69
2018-12-09T14:09:42.334Z,991.81
2018-12-09T14:10:42.357Z,991.78
2018-12-09T14:12:35.303Z,991.78
2018-12-09T14:13:35.334Z,991.85
2018-12-09T14:15:28.291Z,991.89
2018-12-09T14:16:28.316Z,991.89
2018-12-09T14:18:21.258Z,991.92
2018-12-09T14:19:21.289Z,991.94
2018-12-09T14:21:14.248Z,991.91
2018-12-09T14:22:15.762Z,991.98
2018-12-09T14:24:07.216Z,992.08
2018-12-09T14:25:07.248Z,992.07
2018-12-09T14:27:00.704Z,992.07
2018-12-09T14:28:00.734Z,992.11
2018-12-09T14:29:53.698Z,992.09
2018-12-09T14:30:53.705Z,992.06
2018-12-09T14:32:46.651Z,992.17
2018-12-09T14:33:46.751Z,992.12
2018-12-09T14:35:39.638Z,992.25
2018-12-09T14:36:39.659Z,992.30
2018-12-09T14:38:32.623Z,992.37
2018-12-09T14:39:34.353Z,992.37
2018-12-09T14:41:26.097Z,992.36
2018-12-09T14:42:26.120Z,992.46
2018-12-09T14:44:19.072Z,992.46
2018-12-09T14:45:19.099Z,992.49
2018-12-09T14:47:12.057Z,992.56
2018-12-09T14:48:12.081Z,992.60
2018-12-09T14:50:05.063Z,992.69
2018-12-09T14:51:05.058Z,992.76
2018-12-09T14:52:58.006Z,992.75
2018-12-09T14:53:58.037Z,992.78
2018-12-09T14:55:50.997Z,992.90
2018-12-09T14:56:51.022Z,992.86
2018-12-09T14:58:43.966Z,992.95
2018-12-09T14:59:43.997Z,992.94
2018-12-09T15:01:36.948Z,992.94
2018-12-09T15:02:36.974Z,992.97
2018-12-09T15:04:29.923Z,992.96
2018-12-09T15:05:29.951Z,993.01
2018-12-09T15:07:22.910Z,993.04
2018-12-09T15:08:22.928Z,993.06
2018-12-09T15:10:15.916Z,993.14
2018-12-09T15:11:15.909Z,993.17
2018-12-09T15:13:08.869Z,993.21
2018-12-09T15:14:08.883Z,993.14
2018-12-09T15:16:01.841Z,993.23
2018-12-09T15:17:01.918Z,993.19
2018-12-09T15:18:54.808Z,993.27
2018-12-09T15:19:54.840Z,993.30
2018-12-09T15:21:47.797Z,993.39
2018-12-09T15:22:47.813Z,993.48
2018-12-09T15:24:41.625Z,993.46
2018-12-09T15:25:40.795Z,993.53
2018-12-09T15:27:33.747Z,993.50
2018-12-09T15:28:33.770Z,993.60
2018-12-09T15:30:26.722Z,993.57
2018-12-09T15:31:26.749Z,993.65
2018-12-09T15:33:20.199Z,993.65
2018-12-09T15:34:20.218Z,993.73
2018-12-09T15:36:13.181Z,993.75
2018-12-09T15:37:13.196Z,993.74
2018-12-09T15:39:06.156Z,993.69
2018-12-09T15:40:06.178Z,993.76
2018-12-09T15:41:59.162Z,993.78
2018-12-09T15:42:59.152Z,993.74
2018-12-09T15:44:52.101Z,993.80
2018-12-09T15:45:52.130Z,993.86
2018-12-09T15:47:45.089Z,993.84
2018-12-09T15:48:45.113Z,993.88
2018-12-09T15:50:38.060Z,993.89
2018-12-09T15:51:38.092Z,993.96
2018-12-09T15:53:31.042Z,994.00
2018-12-09T15:54:31.062Z,993.95
2018-12-09T15:56:24.012Z,994.04
2018-12-09T15:57:24.042Z,994.06
2018-12-09T15:59:16.999Z,994.08
2018-12-09T16:00:17.019Z,994.13
2018-12-09T16:02:09.976Z,994.17
2018-12-09T16:03:09.997Z,994.22
2018-12-09T16:05:02.946Z,994.25
2018-12-09T16:06:02.978Z,994.22
2018-12-09T16:07:55.938Z,994.23
2018-12-09T16:08:55.961Z,994.31
2018-12-09T16:10:48.905Z,994.42
2018-12-09T16:11:48.936Z,994.30
2018-12-09T16:13:41.892Z,994.41
2018-12-09T16:14:41.917Z,994.46
2018-12-09T16:16:34.859Z,994.53
2018-12-09T16:17:34.889Z,994.52
2018-12-09T16:19:27.846Z,994.57
2018-12-09T16:20:27.866Z,994.59
2018-12-09T16:22:20.825Z,994.56
2018-12-09T16:23:20.847Z,994.57
2018-12-09T16:25:13.796Z,994.64
2018-12-09T16:26:13.827Z,994.68
2018-12-09T16:28:06.785Z,994.66
2018-12-09T16:29:06.812Z,994.64
2018-12-09T16:30:59.751Z,994.71
2018-12-09T16:31:59.822Z,994.73
2018-12-09T16:33:52.737Z,994.78
2018-12-09T16:34:52.758Z,994.71
2018-12-09T16:36:45.706Z,994.86
2018-12-09T16:37:45.736Z,994.87
2018-12-09T16:39:38.700Z,994.93
2018-12-09T16:40:38.724Z,994.89
2018-12-09T16:42:31.681Z,994.99
2018-12-09T16:43:31.706Z,995.04
2018-12-09T16:45:24.663Z,995.05
2018-12-09T16:46:24.682Z,995.15
2018-12-09T16:48:17.639Z,995.14
2018-12-09T16:49:17.663Z,995.14
2018-12-09T16:51:10.610Z,995.19
2018-12-09T16:52:10.640Z,995.22
2018-12-09T16:54:03.597Z,995.26
2018-12-09T16:55:03.621Z,995.29
2018-12-09T16:56:56.566Z,995.31
2018-12-09T16:57:56.597Z,995.40
2018-12-09T16:59:49.553Z,995.52
2018-12-09T17:00:49.573Z,995.49
2018-12-09T17:02:42.519Z,995.57
2018-12-09T17:03:42.551Z,995.54
2018-12-09T17:05:35.507Z,995.73
2018-12-09T17:06:35.529Z,995.69
2018-12-09T17:08:28.487Z,995.71
2018-12-09T17:09:28.508Z,995.69
2018-12-09T17:11:21.457Z,995.74
2018-12-09T17:12:21.487Z,995.75
2018-12-09T17:14:14.455Z,995.83
2018-12-09T17:15:14.462Z,995.81
2018-12-09T17:17:07.410Z,995.97
2018-12-09T17:18:07.446Z,995.92
2018-12-09T17:20:06.213Z,995.86
2018-12-09T17:21:00.415Z,996.01
2018-12-09T17:22:53.365Z,996.00
2018-12-09T17:23:53.396Z,996.02
2018-12-09T17:25:46.361Z,996.07
2018-12-09T17:26:46.376Z,996.13
2018-12-09T17:28:39.331Z,996.13
2018-12-09T17:29:39.350Z,996.14
2018-12-09T17:31:32.296Z,996.30
2018-12-09T17:32:32.329Z,996.27
2018-12-09T17:34:25.279Z,996.38
2018-12-09T17:35:25.302Z,996.45
2018-12-09T17:37:18.250Z,996.46
2018-12-09T17:38:18.280Z,996.56
2018-12-09T17:40:11.238Z,996.59
2018-12-09T17:41:11.263Z,996.58
2018-12-09T17:43:04.206Z,996.61
2018-12-09T17:44:04.237Z,996.67
2018-12-09T17:45:57.195Z,996.65
2018-12-09T17:46:57.218Z,996.78
2018-12-09T17:48:50.173Z,996.75
2018-12-09T17:49:50.193Z,996.80
2018-12-09T17:51:43.141Z,996.79
2018-12-09T17:52:43.174Z,996.85
2018-12-09T17:54:36.130Z,996.92
2018-12-09T17:55:36.149Z,996.87
2018-12-09T17:57:29.095Z,997.00
2018-12-09T17:58:29.129Z,996.97
2018-12-09T18:00:22.081Z,997.02